Tropical Cyclones
[Index]
Main Index Home Page Stock Weather Photos Extreme Storms Discussion Storm News and Storm Chasing Reports Tropical Cyclones / Hurricanes / Typhoons Weather Data and Links Wild Fires / Bushfires Weather Observation Techniques Weather Picture Catalogue Tornado Pictures and Reports Stock Video Footage and DVDs for sale
Season 2013-2014 Tropical Cyclone FOBANE Track Map
Season 2013-2014 Summaries (Operational Data): [AU] [SIO] [SPAC] [SH]
<<- Previous TC | 2013-2014 Season | Next TC ->>

click for intensity scale information  Lat/long Grid: Show Hide

 Date Labels: Show Hide

Operational Tropical Cyclone Data : JTWC Advisories

Name: FOBANE
Number: 1414

03 Feb 2014 00:00 UTC to 17 Feb 2014 06:00 UTC

    date/time    lat    long     hPa   cat  kts
2014-02-03 00   14.2    69.6    1010         15          
2014-02-03 06   14.2    68.5    1010         15          
2014-02-03 12   14.2    69.6    1010         15          
2014-02-03 18   12.1    71.6    1010         15          
2014-02-04 00   12.4    72.5    1010         15          
2014-02-04 06   12.8    73.6    1010         15          
2014-02-04 12   13.1    73.9    1007         20          
2014-02-04 18   13.3    73.8    1007         20          
2014-02-05 00   13.5    73.6    1000         25          
2014-02-05 06   13.7    73.3    1004         25          
2014-02-05 12   13.7    72.8    1004         25          
2014-02-05 18   13.4    72.0    1002         25          
2014-02-06 00   13.1    71.6    1000         30          
2014-02-06 06   13.0    71.3    1000         30          
2014-02-06 12   13.1    71.0    1000         30          
2014-02-06 18   13.3    70.7     996         30          
2014-02-07 00   14.0    70.4     995    1    35          
2014-02-07 06   14.8    70.3     996    1    35          
2014-02-07 12   15.5    69.9     996    1    35          
2014-02-07 18   15.7    69.2     993    1    40          
2014-02-08 00   14.8    69.4     993    1    40          
2014-02-08 06   14.8    70.4     993    1    40          
2014-02-08 12   15.2    71.2     989    1    45          
2014-02-08 18   15.2    71.8     989    1    45          
2014-02-09 00   15.4    72.5     982    2    55          
2014-02-09 06   15.6    73.6     982    2    55          
2014-02-09 12   16.7    74.8     982    2    55          
2014-02-09 18   18.6    75.7     978    2    60          
2014-02-10 00   21.3    74.5     978    2    60          
2014-02-10 06   22.5    72.6     982    2    55          
2014-02-10 12   23.2    70.1     985    2    50          
2014-02-10 18   23.2    68.7     985    2    50          
2014-02-11 00   26.2    65.4     989    1    45          
2014-02-11 06   27.2    64.9     989    1    45          
2014-02-11 12   28.0    64.5     989    1    45          
2014-02-11 18   25.3    66.8     989    1    45          
2014-02-12 00   26.2    65.4     989    1    45          
2014-02-12 06   27.2    64.9     989    1    45          
2014-02-12 12   28.0    64.5     989    1    45          
2014-02-12 18   28.8    64.0     989    1    45          
2014-02-13 00   29.4    63.7     989    1    45          
2014-02-13 06   29.4    63.3     993    1    40          
2014-02-13 12   29.9    62.7     993    1    40          
2014-02-13 18   29.9    62.3     993    1    40          
2014-02-14 00   29.9    61.9     996    1    35          
2014-02-14 06   30.0    61.9     996    1    35          
2014-02-14 12   30.8    60.7    1000         30          
2014-02-14 18   31.3    59.9    1000         30          
2014-02-15 00   31.4    59.5    1000         30          
2014-02-15 06   31.7    59.2    1000         30          
2014-02-15 12   32.1    59.1    1000         30          
2014-02-15 18   32.2    59.4    1000         30          
2014-02-16 00   31.9    59.9    1000         30          
2014-02-16 06   31.8    60.9    1000         30          
2014-02-16 12   32.2    61.2    1000         25          
2014-02-16 18   32.5    63.5    1004         25          
2014-02-17 00   32.8    64.8    1004         25          
2014-02-17 06   34.0    67.3    1004         25          
Winds are 10-min average.

Tropical cyclone tracks developed by Michael Bath using operational warnings and advisories and Google Maps.


[Australian Severe Weather index] [Copyright Notice] [Email Contacts] [Search This Site] [Privacy Policy]
Document: tropical_cyclone_fobane.htm Updated: 2 May 2017